Achim Manz-Bothe 1:30:00 row

21,265

Meters

1:30:00.0

Time

2:06.9

Pace

1319

Calories

119

Heart Rate

Average Watts171
Calories Per Hour879
Stroke Rate28

December 19, 2019 14:23:00

Workout
RowErg

Workout Type
Fixed Time

Weight Class
Hwt

Verified
Yes

Entered
Concept2 Utility

Splits

Time Meters Pace Watts Cal/Hr Cal S/M
1:30:00.0 21,265 2:06.9 171 879 1319 28 119
3:00.0 684 2:11.5 154 820 41 27 110
6:00.0 693 2:09.8 160 840 42 29 113
9:00.0 699 2:08.7 164 860 43 29 115
12:00.0 704 2:07.8 168 860 43 29 118
15:00.0 707 2:07.2 170 880 44 29 116
18:00.0 708 2:07.1 170 880 44 29 118
21:00.0 707 2:07.2 170 880 44 29 118
24:00.0 707 2:07.2 170 880 44 29 117
27:00.0 707 2:07.2 170 880 44 29 119
30:00.0 705 2:07.6 168 860 43 29 119
33:00.0 706 2:07.4 169 880 44 29 117
36:00.0 709 2:06.9 171 880 44 29 119
39:00.0 709 2:06.9 171 880 44 29 119
42:00.0 711 2:06.5 173 880 44 29 119
45:00.0 710 2:06.7 172 880 44 29 119
48:00.0 709 2:06.9 171 880 44 29 122
51:00.0 709 2:06.9 171 880 44 29 119
54:00.0 711 2:06.5 173 880 44 29 120
57:00.0 713 2:06.2 174 880 44 29 121
1:00:00.0 712 2:06.4 173 880 44 29 120
1:03:00.0 712 2:06.4 173 880 44 29 119
1:06:00.0 713 2:06.2 174 880 44 29 120
1:09:00.0 714 2:06.0 175 900 45 29 121
1:12:00.0 715 2:05.8 175 900 45 29 121
1:15:00.0 714 2:06.0 175 900 45 29 122
1:18:00.0 712 2:06.4 173 880 44 29 122
1:21:00.0 717 2:05.5 177 900 45 29 122
1:24:00.0 716 2:05.6 176 900 45 29 124
1:27:00.0 717 2:05.5 177 900 45 29 123
1:30:00.0 716 2:05.6 176 900 45 29 123